Impacts METAR Board INFO
IDs:

KMSP - Minneapolis-St Paul, MN, US

Updated at: 0800 UTC 17 Dec 2017
Potential Impact None Slight Moderate High
Time16/20Z 16/21Z 16/22Z 16/23Z 17/00Z 17/01Z 17/02Z 17/03Z 17/04Z 17/05Z 17/06Z 17/07Z 17/08Z
VIS8 6 8 10 10 10 10 10 10 10 10 10 10
CIG12 13 16 18 19 18 20 21 140 140 120 -- --
CoverOVCOVCOVCOVCOVCOVCOVCBKNBKNBKNOVCSCTSCT
FltCatMVFRMVFRMVFRMVFRMVFRMVFRMVFRMVFRVFRVFRVFRVFRVFR
WX--HZ----------------------
WDir401007080806080706050500
WSpd3 5 0 8 6 6 5 6 3 4 3 3 0
WGst-- -- -- -- -- -- -- -- -- -- -- -- --
Raw hourly METARs
KMSP 161953Z 04003KT 8SM OVC012 M02/M04 A2992 RMK AO2 SLP142 T10171039
KMSP 162053Z 01005KT 6SM HZ OVC013 M02/M04 A2994 RMK AO2 SLP150 T10171044 53018
KMSP 162153Z 00000KT 8SM OVC016 M02/M05 A2999 RMK AO2 SLP168 T10171050
KMSP 162253Z 07008KT 10SM OVC018 M02/M06 A3000 RMK AO2 SLP170 T10221056
KMSP 162353Z 08006KT 10SM BKN019 OVC210 M03/M06 A3003 RMK AO2 SLP180 4/002 T10281056 11017 21028 51028
KMSP 170053Z 08006KT 10SM BKN018 OVC200 M03/M07 A3006 RMK AO2 SLP191 T10331067
KMSP 170153Z 06005KT 10SM OVC020 M03/M07 A3008 RMK AO2 SLP198 T10331067
KMSP 170253Z 08006KT 10SM BKN021 M03/M07 A3009 RMK AO2 SLP202 T10331072 51022
KMSP 170353Z 07003KT 10SM FEW021 BKN140 M04/M07 A3011 RMK AO2 SLP210 T10391072
KMSP 170453Z 06004KT 10SM FEW021 BKN140 M05/M08 A3012 RMK AO2 SLP210 T10501078
KMSP 170553Z 05003KT 10SM OVC120 M05/M08 A3009 RMK AO2 SLP203 4/002 T10501078 11028 21050 410061050 50001
KMSP 170653Z 05003KT 10SM SCT210 M06/M08 A3009 RMK AO2 SLP203 T10611078
KMSP 170753Z 00000KT 10SM SCT210 M07/M08 A3010 RMK AO2 SLP207 T10671083